sensor_id;sensor_type;location;lat;lon;timestamp;P1;durP1;ratioP1;P2;durP2;ratioP2
2049;SDS011;8478;49.208;8.806;2023-02-26T00:01:39;11.00;;;9.70;;
2049;SDS011;8478;49.208;8.806;2023-02-26T00:04:05;11.47;;;10.47;;
2049;SDS011;8478;49.208;8.806;2023-02-26T00:06:33;10.97;;;10.07;;
2049;SDS011;8478;49.208;8.806;2023-02-26T00:09:01;8.90;;;8.00;;
2049;SDS011;8478;49.208;8.806;2023-02-26T00:11:28;9.07;;;8.20;;
2049;SDS011;8478;49.208;8.806;2023-02-26T00:13:54;8.23;;;7.43;;
2049;SDS011;8478;49.208;8.806;2023-02-26T00:16:30;9.30;;;7.87;;
2049;SDS011;8478;49.208;8.806;2023-02-26T00:19:00;7.40;;;6.70;;
2049;SDS011;8478;49.208;8.806;2023-02-26T00:21:28;8.77;;;6.67;;
2049;SDS011;8478;49.208;8.806;2023-02-26T00:23:55;6.50;;;5.90;;
2049;SDS011;8478;49.208;8.806;2023-02-26T00:26:22;7.10;;;6.50;;
2049;SDS011;8478;49.208;8.806;2023-02-26T00:28:49;6.50;;;5.90;;
2049;SDS011;8478;49.208;8.806;2023-02-26T00:31:15;6.20;;;5.70;;
2049;SDS011;8478;49.208;8.806;2023-02-26T00:33:42;7.53;;;6.93;;
2049;SDS011;8478;49.208;8.806;2023-02-26T00:36:19;7.27;;;6.67;;
2049;SDS011;8478;49.208;8.806;2023-02-26T00:41:44;6.37;;;5.80;;
2049;SDS011;8478;49.208;8.806;2023-02-26T00:44:10;7.50;;;5.80;;
2049;SDS011;8478;49.208;8.806;2023-02-26T00:49:17;5.33;;;4.83;;
2049;SDS011;8478;49.208;8.806;2023-02-26T00:52:05;8.13;;;5.53;;
2049;SDS011;8478;49.208;8.806;2023-02-26T00:54:38;7.60;;;6.90;;
2049;SDS011;8478;49.208;8.806;2023-02-26T00:57:04;9.03;;;7.97;;
2049;SDS011;8478;49.208;8.806;2023-02-26T00:59:30;9.97;;;8.37;;
2049;SDS011;8478;49.208;8.806;2023-02-26T01:01:56;11.80;;;9.60;;
2049;SDS011;8478;49.208;8.806;2023-02-26T01:04:22;14.33;;;12.47;;
2049;SDS011;8478;49.208;8.806;2023-02-26T01:06:50;11.63;;;10.30;;
2049;SDS011;8478;49.208;8.806;2023-02-26T01:11:49;11.20;;;9.60;;
2049;SDS011;8478;49.208;8.806;2023-02-26T01:14:16;8.00;;;7.30;;
2049;SDS011;8478;49.208;8.806;2023-02-26T01:16:56;10.07;;;7.47;;
2049;SDS011;8478;49.208;8.806;2023-02-26T01:19:49;8.33;;;7.20;;
2049;SDS011;8478;49.208;8.806;2023-02-26T01:22:22;8.07;;;7.27;;
2049;SDS011;8478;49.208;8.806;2023-02-26T01:25:04;10.00;;;9.10;;
2049;SDS011;8478;49.208;8.806;2023-02-26T01:27:35;7.23;;;6.53;;
2049;SDS011;8478;49.208;8.806;2023-02-26T01:30:03;9.00;;;7.20;;
2049;SDS011;8478;49.208;8.806;2023-02-26T01:37:55;5.30;;;4.90;;
2049;SDS011;8478;49.208;8.806;2023-02-26T01:43:14;6.50;;;5.60;;
2049;SDS011;8478;49.208;8.806;2023-02-26T01:45:58;6.33;;;5.80;;
2049;SDS011;8478;49.208;8.806;2023-02-26T01:51:41;6.20;;;5.63;;
2049;SDS011;8478;49.208;8.806;2023-02-26T01:54:09;7.27;;;5.40;;
2049;SDS011;8478;49.208;8.806;2023-02-26T01:56:35;6.47;;;5.00;;
2049;SDS011;8478;49.208;8.806;2023-02-26T01:59:03;6.00;;;5.40;;
2049;SDS011;8478;49.208;8.806;2023-02-26T02:01:34;9.10;;;6.10;;
2049;SDS011;8478;49.208;8.806;2023-02-26T02:04:01;7.20;;;6.17;;
2049;SDS011;8478;49.208;8.806;2023-02-26T02:06:28;7.70;;;6.17;;
2049;SDS011;8478;49.208;8.806;2023-02-26T02:08:55;7.10;;;5.60;;
2049;SDS011;8478;49.208;8.806;2023-02-26T02:11:21;7.27;;;6.57;;
2049;SDS011;8478;49.208;8.806;2023-02-26T02:16:58;6.10;;;5.50;;
2049;SDS011;8478;49.208;8.806;2023-02-26T02:39:24;4.67;;;4.27;;
2049;SDS011;8478;49.208;8.806;2023-02-26T02:41:56;4.70;;;4.30;;
2049;SDS011;8478;49.208;8.806;2023-02-26T02:44:28;4.60;;;4.17;;
2049;SDS011;8478;49.208;8.806;2023-02-26T02:46:59;4.87;;;4.47;;
2049;SDS011;8478;49.208;8.806;2023-02-26T02:49:33;4.10;;;3.70;;
2049;SDS011;8478;49.208;8.806;2023-02-26T02:52:21;4.93;;;3.90;;
2049;SDS011;8478;49.208;8.806;2023-02-26T02:57:38;3.83;;;3.53;;
2049;SDS011;8478;49.208;8.806;2023-02-26T03:00:15;3.80;;;3.30;;
2049;SDS011;8478;49.208;8.806;2023-02-26T03:05:29;4.00;;;3.70;;
2049;SDS011;8478;49.208;8.806;2023-02-26T03:07:56;4.07;;;3.57;;
2049;SDS011;8478;49.208;8.806;2023-02-26T03:10:25;3.60;;;3.40;;
2049;SDS011;8478;49.208;8.806;2023-02-26T03:12:51;3.23;;;3.00;;
2049;SDS011;8478;49.208;8.806;2023-02-26T03:15:19;3.57;;;3.27;;
2049;SDS011;8478;49.208;8.806;2023-02-26T03:20:53;4.13;;;3.73;;
2049;SDS011;8478;49.208;8.806;2023-02-26T03:23:37;3.90;;;3.60;;
2049;SDS011;8478;49.208;8.806;2023-02-26T03:26:14;4.03;;;3.70;;
2049;SDS011;8478;49.208;8.806;2023-02-26T03:29:13;3.70;;;3.40;;
2049;SDS011;8478;49.208;8.806;2023-02-26T03:31:55;3.90;;;3.60;;
2049;SDS011;8478;49.208;8.806;2023-02-26T03:37:04;3.70;;;3.40;;
2049;SDS011;8478;49.208;8.806;2023-02-26T03:39:45;4.33;;;3.40;;
2049;SDS011;8478;49.208;8.806;2023-02-26T03:42:23;3.73;;;3.43;;
2049;SDS011;8478;49.208;8.806;2023-02-26T03:47:23;3.93;;;3.63;;
2049;SDS011;8478;49.208;8.806;2023-02-26T03:49:58;4.10;;;3.67;;
2049;SDS011;8478;49.208;8.806;2023-02-26T03:52:30;4.40;;;3.83;;
2049;SDS011;8478;49.208;8.806;2023-02-26T03:55:01;3.67;;;3.37;;
2049;SDS011;8478;49.208;8.806;2023-02-26T03:57:32;3.63;;;3.43;;
2049;SDS011;8478;49.208;8.806;2023-02-26T03:59:57;3.70;;;3.40;;
2049;SDS011;8478;49.208;8.806;2023-02-26T04:03:25;3.80;;;3.60;;
2049;SDS011;8478;49.208;8.806;2023-02-26T04:05:27;3.97;;;3.47;;
2049;SDS011;8478;49.208;8.806;2023-02-26T04:07:57;3.57;;;3.30;;
2049;SDS011;8478;49.208;8.806;2023-02-26T04:10:29;3.37;;;3.07;;
2049;SDS011;8478;49.208;8.806;2023-02-26T04:13:15;4.10;;;3.80;;
2049;SDS011;8478;49.208;8.806;2023-02-26T04:15:41;4.57;;;3.43;;
2049;SDS011;8478;49.208;8.806;2023-02-26T04:18:07;3.80;;;3.50;;
2049;SDS011;8478;49.208;8.806;2023-02-26T04:20:33;4.83;;;3.47;;
2049;SDS011;8478;49.208;8.806;2023-02-26T04:22:59;4.30;;;3.40;;
2049;SDS011;8478;49.208;8.806;2023-02-26T04:25:24;3.70;;;3.40;;
2049;SDS011;8478;49.208;8.806;2023-02-26T04:27:50;4.40;;;3.33;;
2049;SDS011;8478;49.208;8.806;2023-02-26T04:30:16;4.13;;;3.70;;
2049;SDS011;8478;49.208;8.806;2023-02-26T04:32:41;4.00;;;3.70;;
2049;SDS011;8478;49.208;8.806;2023-02-26T04:35:07;6.03;;;4.27;;
2049;SDS011;8478;49.208;8.806;2023-02-26T04:37:33;4.10;;;3.80;;
2049;SDS011;8478;49.208;8.806;2023-02-26T04:39:58;3.90;;;3.60;;
2049;SDS011;8478;49.208;8.806;2023-02-26T04:42:24;4.43;;;3.60;;
2049;SDS011;8478;49.208;8.806;2023-02-26T04:44:50;4.13;;;3.83;;
2049;SDS011;8478;49.208;8.806;2023-02-26T04:47:15;3.60;;;3.40;;
2049;SDS011;8478;49.208;8.806;2023-02-26T04:49:41;4.30;;;4.00;;
2049;SDS011;8478;49.208;8.806;2023-02-26T04:52:07;3.87;;;3.67;;
2049;SDS011;8478;49.208;8.806;2023-02-26T04:54:32;4.10;;;3.80;;
2049;SDS011;8478;49.208;8.806;2023-02-26T04:56:58;3.80;;;3.50;;
2049;SDS011;8478;49.208;8.806;2023-02-26T04:59:24;4.33;;;3.30;;
2049;SDS011;8478;49.208;8.806;2023-02-26T05:01:49;3.93;;;3.50;;
2049;SDS011;8478;49.208;8.806;2023-02-26T05:04:15;3.67;;;3.40;;
2049;SDS011;8478;49.208;8.806;2023-02-26T05:06:41;4.23;;;3.83;;
2049;SDS011;8478;49.208;8.806;2023-02-26T05:09:06;3.77;;;3.40;;
2049;SDS011;8478;49.208;8.806;2023-02-26T05:11:32;3.63;;;3.40;;
2049;SDS011;8478;49.208;8.806;2023-02-26T05:13:58;3.50;;;3.30;;
2049;SDS011;8478;49.208;8.806;2023-02-26T05:16:23;3.67;;;3.37;;
2049;SDS011;8478;49.208;8.806;2023-02-26T05:18:49;3.60;;;3.30;;
2049;SDS011;8478;49.208;8.806;2023-02-26T05:21:15;3.17;;;2.97;;
2049;SDS011;8478;49.208;8.806;2023-02-26T05:23:40;4.13;;;3.83;;
2049;SDS011;8478;49.208;8.806;2023-02-26T05:26:06;3.20;;;3.00;;
2049;SDS011;8478;49.208;8.806;2023-02-26T05:28:32;3.70;;;3.40;;
2049;SDS011;8478;49.208;8.806;2023-02-26T05:30:58;3.40;;;3.10;;
2049;SDS011;8478;49.208;8.806;2023-02-26T05:33:24;4.00;;;3.70;;
2049;SDS011;8478;49.208;8.806;2023-02-26T05:35:50;3.30;;;3.10;;
2049;SDS011;8478;49.208;8.806;2023-02-26T05:38:16;3.67;;;3.40;;
2049;SDS011;8478;49.208;8.806;2023-02-26T05:40:41;3.50;;;3.20;;
2049;SDS011;8478;49.208;8.806;2023-02-26T05:43:07;7.63;;;4.03;;
2049;SDS011;8478;49.208;8.806;2023-02-26T05:45:33;4.60;;;3.40;;
2049;SDS011;8478;49.208;8.806;2023-02-26T05:47:59;3.93;;;3.60;;
2049;SDS011;8478;49.208;8.806;2023-02-26T05:50:25;4.20;;;3.80;;
2049;SDS011;8478;49.208;8.806;2023-02-26T05:52:51;3.70;;;3.40;;
2049;SDS011;8478;49.208;8.806;2023-02-26T05:55:17;5.87;;;3.50;;
2049;SDS011;8478;49.208;8.806;2023-02-26T05:57:43;4.50;;;3.40;;
2049;SDS011;8478;49.208;8.806;2023-02-26T06:00:08;4.47;;;4.10;;
2049;SDS011;8478;49.208;8.806;2023-02-26T06:02:35;6.80;;;3.90;;
2049;SDS011;8478;49.208;8.806;2023-02-26T06:05:01;3.90;;;3.50;;
2049;SDS011;8478;49.208;8.806;2023-02-26T06:07:27;4.50;;;4.03;;
2049;SDS011;8478;49.208;8.806;2023-02-26T06:09:53;4.40;;;4.00;;
2049;SDS011;8478;49.208;8.806;2023-02-26T06:12:18;3.80;;;3.50;;
2049;SDS011;8478;49.208;8.806;2023-02-26T06:14:44;3.87;;;3.57;;
2049;SDS011;8478;49.208;8.806;2023-02-26T06:17:09;3.73;;;3.43;;
2049;SDS011;8478;49.208;8.806;2023-02-26T06:19:35;4.20;;;3.90;;
2049;SDS011;8478;49.208;8.806;2023-02-26T06:22:01;3.90;;;3.70;;
2049;SDS011;8478;49.208;8.806;2023-02-26T06:24:27;3.97;;;3.67;;
2049;SDS011;8478;49.208;8.806;2023-02-26T06:26:53;4.03;;;3.73;;
2049;SDS011;8478;49.208;8.806;2023-02-26T06:29:19;4.30;;;3.80;;
2049;SDS011;8478;49.208;8.806;2023-02-26T06:31:45;4.60;;;4.17;;
2049;SDS011;8478;49.208;8.806;2023-02-26T06:34:11;5.50;;;4.10;;
2049;SDS011;8478;49.208;8.806;2023-02-26T06:36:37;5.23;;;4.73;;
2049;SDS011;8478;49.208;8.806;2023-02-26T06:39:03;6.37;;;5.87;;
2049;SDS011;8478;49.208;8.806;2023-02-26T06:41:29;5.90;;;5.40;;
2049;SDS011;8478;49.208;8.806;2023-02-26T06:43:55;4.90;;;4.50;;
2049;SDS011;8478;49.208;8.806;2023-02-26T06:46:20;5.60;;;5.10;;
2049;SDS011;8478;49.208;8.806;2023-02-26T06:48:46;5.47;;;5.07;;
2049;SDS011;8478;49.208;8.806;2023-02-26T06:51:12;5.03;;;4.63;;
2049;SDS011;8478;49.208;8.806;2023-02-26T06:53:37;5.17;;;4.77;;
2049;SDS011;8478;49.208;8.806;2023-02-26T06:56:03;5.07;;;4.77;;
2049;SDS011;8478;49.208;8.806;2023-02-26T06:58:29;5.33;;;4.83;;
2049;SDS011;8478;49.208;8.806;2023-02-26T07:00:55;5.60;;;5.10;;
2049;SDS011;8478;49.208;8.806;2023-02-26T07:03:21;4.37;;;4.07;;
2049;SDS011;8478;49.208;8.806;2023-02-26T07:05:46;5.28;;;4.70;;
2049;SDS011;8478;49.208;8.806;2023-02-26T07:08:13;4.93;;;4.53;;
2049;SDS011;8478;49.208;8.806;2023-02-26T07:10:39;5.43;;;4.50;;
2049;SDS011;8478;49.208;8.806;2023-02-26T07:13:05;4.60;;;4.20;;
2049;SDS011;8478;49.208;8.806;2023-02-26T07:15:31;4.80;;;4.40;;
2049;SDS011;8478;49.208;8.806;2023-02-26T07:17:57;4.83;;;4.33;;
2049;SDS011;8478;49.208;8.806;2023-02-26T07:20:24;4.03;;;3.67;;
2049;SDS011;8478;49.208;8.806;2023-02-26T07:22:50;4.73;;;4.37;;
2049;SDS011;8478;49.208;8.806;2023-02-26T07:25:16;4.73;;;4.23;;
2049;SDS011;8478;49.208;8.806;2023-02-26T07:27:42;4.20;;;3.90;;
2049;SDS011;8478;49.208;8.806;2023-02-26T07:30:08;7.60;;;4.27;;
2049;SDS011;8478;49.208;8.806;2023-02-26T07:32:34;3.60;;;3.40;;
2049;SDS011;8478;49.208;8.806;2023-02-26T07:35:00;4.93;;;4.53;;
2049;SDS011;8478;49.208;8.806;2023-02-26T07:37:26;4.20;;;3.90;;
2049;SDS011;8478;49.208;8.806;2023-02-26T07:39:53;6.00;;;3.60;;
2049;SDS011;8478;49.208;8.806;2023-02-26T07:42:19;4.67;;;4.27;;
2049;SDS011;8478;49.208;8.806;2023-02-26T07:44:45;4.07;;;3.77;;
2049;SDS011;8478;49.208;8.806;2023-02-26T07:47:10;3.93;;;3.60;;
2049;SDS011;8478;49.208;8.806;2023-02-26T07:49:36;4.60;;;4.10;;
2049;SDS011;8478;49.208;8.806;2023-02-26T07:52:02;4.53;;;3.83;;
2049;SDS011;8478;49.208;8.806;2023-02-26T07:54:28;4.53;;;4.13;;
2049;SDS011;8478;49.208;8.806;2023-02-26T07:56:54;4.30;;;3.90;;
2049;SDS011;8478;49.208;8.806;2023-02-26T07:59:20;5.10;;;3.83;;
2049;SDS011;8478;49.208;8.806;2023-02-26T08:01:45;5.07;;;4.07;;
2049;SDS011;8478;49.208;8.806;2023-02-26T08:04:11;3.77;;;3.47;;
2049;SDS011;8478;49.208;8.806;2023-02-26T08:06:37;4.17;;;3.87;;
2049;SDS011;8478;49.208;8.806;2023-02-26T08:09:02;4.67;;;4.27;;
2049;SDS011;8478;49.208;8.806;2023-02-26T08:11:29;3.83;;;3.53;;
2049;SDS011;8478;49.208;8.806;2023-02-26T08:13:57;5.20;;;3.97;;
2049;SDS011;8478;49.208;8.806;2023-02-26T08:16:23;4.63;;;3.97;;
2049;SDS011;8478;49.208;8.806;2023-02-26T08:18:48;4.43;;;4.07;;
2049;SDS011;8478;49.208;8.806;2023-02-26T08:21:14;4.10;;;3.70;;
2049;SDS011;8478;49.208;8.806;2023-02-26T08:23:40;4.10;;;3.70;;
2049;SDS011;8478;49.208;8.806;2023-02-26T08:26:06;4.43;;;4.03;;
2049;SDS011;8478;49.208;8.806;2023-02-26T08:28:34;4.00;;;3.70;;
2049;SDS011;8478;49.208;8.806;2023-02-26T08:31:00;4.43;;;4.03;;
2049;SDS011;8478;49.208;8.806;2023-02-26T08:33:27;4.73;;;4.23;;
2049;SDS011;8478;49.208;8.806;2023-02-26T08:35:53;4.72;;;4.05;;
2049;SDS011;8478;49.208;8.806;2023-02-26T08:38:19;3.73;;;3.43;;
2049;SDS011;8478;49.208;8.806;2023-02-26T08:40:48;4.03;;;3.73;;
2049;SDS011;8478;49.208;8.806;2023-02-26T08:43:14;4.00;;;3.60;;
2049;SDS011;8478;49.208;8.806;2023-02-26T08:45:39;3.93;;;3.60;;
2049;SDS011;8478;49.208;8.806;2023-02-26T08:48:05;3.70;;;3.40;;
2049;SDS011;8478;49.208;8.806;2023-02-26T08:50:31;3.77;;;3.47;;
2049;SDS011;8478;49.208;8.806;2023-02-26T08:52:57;4.07;;;3.77;;
2049;SDS011;8478;49.208;8.806;2023-02-26T08:55:23;4.53;;;4.13;;
2049;SDS011;8478;49.208;8.806;2023-02-26T08:57:49;4.00;;;3.60;;
2049;SDS011;8478;49.208;8.806;2023-02-26T09:00:15;4.63;;;4.00;;
2049;SDS011;8478;49.208;8.806;2023-02-26T09:02:42;4.13;;;3.73;;
2049;SDS011;8478;49.208;8.806;2023-02-26T09:05:08;4.13;;;3.83;;
2049;SDS011;8478;49.208;8.806;2023-02-26T09:07:36;4.40;;;4.00;;
2049;SDS011;8478;49.208;8.806;2023-02-26T09:10:03;5.30;;;4.03;;
2049;SDS011;8478;49.208;8.806;2023-02-26T09:12:29;6.40;;;4.70;;
2049;SDS011;8478;49.208;8.806;2023-02-26T09:14:55;6.60;;;5.90;;
2049;SDS011;8478;49.208;8.806;2023-02-26T09:17:23;4.80;;;4.40;;
2049;SDS011;8478;49.208;8.806;2023-02-26T09:19:50;9.33;;;5.57;;
2049;SDS011;8478;49.208;8.806;2023-02-26T09:22:15;5.77;;;4.10;;
2049;SDS011;8478;49.208;8.806;2023-02-26T09:24:41;5.33;;;4.53;;
2049;SDS011;8478;49.208;8.806;2023-02-26T09:27:07;4.93;;;4.33;;
2049;SDS011;8478;49.208;8.806;2023-02-26T09:29:33;4.37;;;3.80;;
2049;SDS011;8478;49.208;8.806;2023-02-26T09:31:58;4.17;;;3.90;;
2049;SDS011;8478;49.208;8.806;2023-02-26T09:34:24;4.73;;;3.90;;
2049;SDS011;8478;49.208;8.806;2023-02-26T09:36:50;4.77;;;4.20;;
2049;SDS011;8478;49.208;8.806;2023-02-26T09:39:15;4.00;;;3.67;;
2049;SDS011;8478;49.208;8.806;2023-02-26T09:41:49;5.13;;;4.13;;
2049;SDS011;8478;49.208;8.806;2023-02-26T09:46:57;4.30;;;3.50;;
2049;SDS011;8478;49.208;8.806;2023-02-26T09:49:37;4.00;;;3.60;;
2049;SDS011;8478;49.208;8.806;2023-02-26T09:55:12;4.10;;;3.70;;
2049;SDS011;8478;49.208;8.806;2023-02-26T09:57:54;3.63;;;2.90;;
2049;SDS011;8478;49.208;8.806;2023-02-26T10:00:28;3.97;;;3.67;;
2049;SDS011;8478;49.208;8.806;2023-02-26T10:03:13;4.10;;;3.80;;
2049;SDS011;8478;49.208;8.806;2023-02-26T10:14:31;4.60;;;3.80;;
2049;SDS011;8478;49.208;8.806;2023-02-26T10:16:59;3.80;;;3.50;;
2049;SDS011;8478;49.208;8.806;2023-02-26T10:19:32;3.90;;;3.60;;
2049;SDS011;8478;49.208;8.806;2023-02-26T10:24:40;4.50;;;4.20;;
2049;SDS011;8478;49.208;8.806;2023-02-26T10:27:13;4.87;;;4.47;;
2049;SDS011;8478;49.208;8.806;2023-02-26T10:29:57;4.53;;;3.60;;
2049;SDS011;8478;49.208;8.806;2023-02-26T10:32:32;4.40;;;3.47;;
2049;SDS011;8478;49.208;8.806;2023-02-26T10:35:13;3.43;;;3.23;;
2049;SDS011;8478;49.208;8.806;2023-02-26T10:37:55;3.17;;;2.97;;
2049;SDS011;8478;49.208;8.806;2023-02-26T10:43:21;3.50;;;3.20;;
2049;SDS011;8478;49.208;8.806;2023-02-26T10:46:14;4.80;;;3.30;;
2049;SDS011;8478;49.208;8.806;2023-02-26T10:48:49;3.20;;;3.00;;
2049;SDS011;8478;49.208;8.806;2023-02-26T10:51:36;2.70;;;2.50;;
2049;SDS011;8478;49.208;8.806;2023-02-26T10:56:47;3.50;;;3.20;;
2049;SDS011;8478;49.208;8.806;2023-02-26T10:59:13;3.00;;;2.80;;
2049;SDS011;8478;49.208;8.806;2023-02-26T11:01:39;3.33;;;3.13;;
2049;SDS011;8478;49.208;8.806;2023-02-26T11:04:06;4.20;;;3.80;;
2049;SDS011;8478;49.208;8.806;2023-02-26T11:06:43;3.23;;;2.93;;
2049;SDS011;8478;49.208;8.806;2023-02-26T11:09:23;3.83;;;3.53;;
2049;SDS011;8478;49.208;8.806;2023-02-26T11:11:56;3.20;;;2.90;;
2049;SDS011;8478;49.208;8.806;2023-02-26T11:14:29;3.57;;;3.30;;
2049;SDS011;8478;49.208;8.806;2023-02-26T11:16:58;3.83;;;3.20;;
2049;SDS011;8478;49.208;8.806;2023-02-26T11:19:27;3.90;;;3.60;;
2049;SDS011;8478;49.208;8.806;2023-02-26T11:22:02;2.90;;;2.70;;
2049;SDS011;8478;49.208;8.806;2023-02-26T11:24:40;4.23;;;3.93;;
2049;SDS011;8478;49.208;8.806;2023-02-26T11:27:11;4.00;;;3.70;;
2049;SDS011;8478;49.208;8.806;2023-02-26T11:29:40;3.43;;;3.20;;
2049;SDS011;8478;49.208;8.806;2023-02-26T11:32:16;4.17;;;3.87;;
2049;SDS011;8478;49.208;8.806;2023-02-26T11:34:47;4.07;;;3.77;;
2049;SDS011;8478;49.208;8.806;2023-02-26T11:37:22;4.23;;;3.83;;
2049;SDS011;8478;49.208;8.806;2023-02-26T11:39:59;3.47;;;3.20;;
2049;SDS011;8478;49.208;8.806;2023-02-26T11:42:33;3.77;;;3.50;;
2049;SDS011;8478;49.208;8.806;2023-02-26T11:45:02;3.90;;;3.60;;
2049;SDS011;8478;49.208;8.806;2023-02-26T11:47:29;3.70;;;3.40;;
2049;SDS011;8478;49.208;8.806;2023-02-26T11:50:02;3.87;;;3.60;;
2049;SDS011;8478;49.208;8.806;2023-02-26T11:52:39;3.77;;;3.50;;
2049;SDS011;8478;49.208;8.806;2023-02-26T11:55:25;3.83;;;3.53;;
2049;SDS011;8478;49.208;8.806;2023-02-26T11:57:54;2.70;;;2.50;;
2049;SDS011;8478;49.208;8.806;2023-02-26T12:00:39;3.00;;;2.80;;
2049;SDS011;8478;49.208;8.806;2023-02-26T12:03:06;3.43;;;3.23;;
2049;SDS011;8478;49.208;8.806;2023-02-26T12:05:39;4.33;;;3.40;;
2049;SDS011;8478;49.208;8.806;2023-02-26T12:08:11;3.40;;;3.13;;
2049;SDS011;8478;49.208;8.806;2023-02-26T12:21:39;3.40;;;3.10;;
2049;SDS011;8478;49.208;8.806;2023-02-26T12:24:46;3.20;;;3.00;;
2049;SDS011;8478;49.208;8.806;2023-02-26T12:30:29;2.87;;;2.67;;
2049;SDS011;8478;49.208;8.806;2023-02-26T12:33:09;3.20;;;3.00;;
2049;SDS011;8478;49.208;8.806;2023-02-26T12:38:27;3.03;;;2.80;;
2049;SDS011;8478;49.208;8.806;2023-02-26T12:41:05;3.33;;;3.03;;
2049;SDS011;8478;49.208;8.806;2023-02-26T12:43:43;2.83;;;2.63;;
2049;SDS011;8478;49.208;8.806;2023-02-26T12:57:14;3.10;;;2.90;;
2049;SDS011;8478;49.208;8.806;2023-02-26T13:05:41;2.73;;;2.63;;
2049;SDS011;8478;49.208;8.806;2023-02-26T13:08:19;3.00;;;2.80;;
2049;SDS011;8478;49.208;8.806;2023-02-26T13:16:53;3.00;;;2.80;;
2049;SDS011;8478;49.208;8.806;2023-02-26T13:19:35;2.53;;;2.33;;
2049;SDS011;8478;49.208;8.806;2023-02-26T13:22:25;3.17;;;2.97;;
2049;SDS011;8478;49.208;8.806;2023-02-26T13:27:51;2.90;;;2.70;;
2049;SDS011;8478;49.208;8.806;2023-02-26T13:30:23;2.87;;;2.67;;
2049;SDS011;8478;49.208;8.806;2023-02-26T13:32:54;2.83;;;2.63;;
2049;SDS011;8478;49.208;8.806;2023-02-26T13:37:57;2.63;;;2.53;;
2049;SDS011;8478;49.208;8.806;2023-02-26T14:06:53;2.47;;;2.37;;
2049;SDS011;8478;49.208;8.806;2023-02-26T14:19:37;2.60;;;2.40;;
2049;SDS011;8478;49.208;8.806;2023-02-26T14:22:19;2.93;;;2.63;;
2049;SDS011;8478;49.208;8.806;2023-02-26T14:27:38;2.80;;;2.70;;
2049;SDS011;8478;49.208;8.806;2023-02-26T14:35:20;2.80;;;2.60;;
2049;SDS011;8478;49.208;8.806;2023-02-26T14:40:23;2.50;;;2.30;;
2049;SDS011;8478;49.208;8.806;2023-02-26T14:47:51;2.43;;;2.23;;
2049;SDS011;8478;49.208;8.806;2023-02-26T14:50:20;2.70;;;2.50;;
2049;SDS011;8478;49.208;8.806;2023-02-26T14:52:51;2.03;;;1.50;;
2049;SDS011;8478;49.208;8.806;2023-02-26T14:55:42;2.60;;;2.40;;
2049;SDS011;8478;49.208;8.806;2023-02-26T15:01:42;2.87;;;2.67;;
2049;SDS011;8478;49.208;8.806;2023-02-26T15:09:37;2.50;;;2.40;;
2049;SDS011;8478;49.208;8.806;2023-02-26T15:12:31;2.90;;;2.70;;
2049;SDS011;8478;49.208;8.806;2023-02-26T15:15:21;2.30;;;2.20;;
2049;SDS011;8478;49.208;8.806;2023-02-26T15:20:49;2.10;;;2.00;;
2049;SDS011;8478;49.208;8.806;2023-02-26T15:23:37;2.33;;;2.13;;
2049;SDS011;8478;49.208;8.806;2023-02-26T15:26:04;2.37;;;2.27;;
2049;SDS011;8478;49.208;8.806;2023-02-26T15:28:33;2.20;;;2.10;;
2049;SDS011;8478;49.208;8.806;2023-02-26T15:31:02;2.40;;;2.30;;
2049;SDS011;8478;49.208;8.806;2023-02-26T15:33:31;18.03;;;4.47;;
2049;SDS011;8478;49.208;8.806;2023-02-26T15:35:58;68.33;;;11.50;;
2049;SDS011;8478;49.208;8.806;2023-02-26T15:38:25;38.90;;;8.63;;
2049;SDS011;8478;49.208;8.806;2023-02-26T15:40:52;28.13;;;5.57;;
2049;SDS011;8478;49.208;8.806;2023-02-26T15:43:23;21.53;;;5.53;;
2049;SDS011;8478;49.208;8.806;2023-02-26T15:45:53;17.73;;;5.50;;
2049;SDS011;8478;49.208;8.806;2023-02-26T15:48:23;11.50;;;4.40;;
2049;SDS011;8478;49.208;8.806;2023-02-26T15:51:00;10.33;;;4.23;;
2049;SDS011;8478;49.208;8.806;2023-02-26T15:53:29;7.73;;;4.37;;
2049;SDS011;8478;49.208;8.806;2023-02-26T15:56:11;8.50;;;3.70;;
2049;SDS011;8478;49.208;8.806;2023-02-26T15:58:45;6.23;;;3.70;;
2049;SDS011;8478;49.208;8.806;2023-02-26T16:01:24;10.63;;;3.43;;
2049;SDS011;8478;49.208;8.806;2023-02-26T16:03:52;6.67;;;3.53;;
2049;SDS011;8478;49.208;8.806;2023-02-26T16:06:26;4.90;;;3.30;;
2049;SDS011;8478;49.208;8.806;2023-02-26T16:08:55;5.53;;;3.80;;
2049;SDS011;8478;49.208;8.806;2023-02-26T16:11:22;7.93;;;4.27;;
2049;SDS011;8478;49.208;8.806;2023-02-26T16:13:51;6.20;;;3.13;;
2049;SDS011;8478;49.208;8.806;2023-02-26T16:16:19;3.30;;;3.00;;
2049;SDS011;8478;49.208;8.806;2023-02-26T16:18:48;4.60;;;3.10;;
2049;SDS011;8478;49.208;8.806;2023-02-26T16:21:37;2.80;;;2.60;;
2049;SDS011;8478;49.208;8.806;2023-02-26T16:24:04;3.00;;;2.80;;
2049;SDS011;8478;49.208;8.806;2023-02-26T16:26:33;3.07;;;2.87;;
2049;SDS011;8478;49.208;8.806;2023-02-26T16:29:22;3.37;;;3.10;;
2049;SDS011;8478;49.208;8.806;2023-02-26T16:32:00;2.60;;;2.40;;
2049;SDS011;8478;49.208;8.806;2023-02-26T16:36:58;4.00;;;3.70;;
2049;SDS011;8478;49.208;8.806;2023-02-26T16:39:44;4.07;;;3.77;;
2049;SDS011;8478;49.208;8.806;2023-02-26T16:42:14;4.03;;;3.50;;
2049;SDS011;8478;49.208;8.806;2023-02-26T16:44:45;4.40;;;3.30;;
2049;SDS011;8478;49.208;8.806;2023-02-26T16:47:34;4.50;;;3.07;;
2049;SDS011;8478;49.208;8.806;2023-02-26T16:50:03;3.83;;;3.20;;
2049;SDS011;8478;49.208;8.806;2023-02-26T16:52:29;3.40;;;3.13;;
2049;SDS011;8478;49.208;8.806;2023-02-26T16:54:57;4.23;;;3.20;;
2049;SDS011;8478;49.208;8.806;2023-02-26T16:57:33;4.53;;;3.00;;
2049;SDS011;8478;49.208;8.806;2023-02-26T17:00:10;2.90;;;2.57;;
2049;SDS011;8478;49.208;8.806;2023-02-26T17:02:41;4.03;;;3.37;;
2049;SDS011;8478;49.208;8.806;2023-02-26T17:05:48;3.30;;;2.80;;
2049;SDS011;8478;49.208;8.806;2023-02-26T17:15:41;2.63;;;2.43;;
2049;SDS011;8478;49.208;8.806;2023-02-26T17:18:10;2.70;;;2.50;;
2049;SDS011;8478;49.208;8.806;2023-02-26T17:20:36;3.40;;;3.10;;
2049;SDS011;8478;49.208;8.806;2023-02-26T17:23:03;2.80;;;2.60;;
2049;SDS011;8478;49.208;8.806;2023-02-26T17:25:32;3.20;;;2.77;;
2049;SDS011;8478;49.208;8.806;2023-02-26T17:28:00;3.53;;;2.83;;
2049;SDS011;8478;49.208;8.806;2023-02-26T17:30:26;3.00;;;2.83;;
2049;SDS011;8478;49.208;8.806;2023-02-26T17:32:56;3.20;;;3.00;;
2049;SDS011;8478;49.208;8.806;2023-02-26T17:35:23;3.07;;;2.87;;
2049;SDS011;8478;49.208;8.806;2023-02-26T17:37:48;3.37;;;2.93;;
2049;SDS011;8478;49.208;8.806;2023-02-26T17:40:23;3.10;;;2.90;;
2049;SDS011;8478;49.208;8.806;2023-02-26T17:42:51;3.20;;;3.00;;
2049;SDS011;8478;49.208;8.806;2023-02-26T17:45:17;5.50;;;3.37;;
2049;SDS011;8478;49.208;8.806;2023-02-26T17:47:44;4.83;;;4.00;;
2049;SDS011;8478;49.208;8.806;2023-02-26T17:50:57;3.67;;;3.37;;
2049;SDS011;8478;49.208;8.806;2023-02-26T17:53:11;4.27;;;2.50;;
2049;SDS011;8478;49.208;8.806;2023-02-26T17:55:41;3.90;;;3.50;;
2049;SDS011;8478;49.208;8.806;2023-02-26T17:58:13;2.90;;;2.70;;
2049;SDS011;8478;49.208;8.806;2023-02-26T18:00:46;3.30;;;3.00;;
2049;SDS011;8478;49.208;8.806;2023-02-26T18:03:16;4.73;;;3.40;;
2049;SDS011;8478;49.208;8.806;2023-02-26T18:05:42;3.40;;;3.10;;
2049;SDS011;8478;49.208;8.806;2023-02-26T18:08:15;3.53;;;2.97;;
2049;SDS011;8478;49.208;8.806;2023-02-26T18:10:50;4.43;;;3.07;;
2049;SDS011;8478;49.208;8.806;2023-02-26T18:13:16;3.10;;;2.90;;
2049;SDS011;8478;49.208;8.806;2023-02-26T18:15:43;2.97;;;2.77;;
2049;SDS011;8478;49.208;8.806;2023-02-26T18:18:12;3.10;;;2.90;;
2049;SDS011;8478;49.208;8.806;2023-02-26T18:20:38;3.87;;;3.40;;
2049;SDS011;8478;49.208;8.806;2023-02-26T18:23:06;3.33;;;3.10;;
2049;SDS011;8478;49.208;8.806;2023-02-26T18:25:32;2.90;;;2.70;;
2049;SDS011;8478;49.208;8.806;2023-02-26T18:28:01;3.00;;;2.70;;
2049;SDS011;8478;49.208;8.806;2023-02-26T18:30:29;4.00;;;3.70;;
2049;SDS011;8478;49.208;8.806;2023-02-26T18:32:59;3.60;;;3.30;;
2049;SDS011;8478;49.208;8.806;2023-02-26T18:35:25;4.00;;;3.70;;
2049;SDS011;8478;49.208;8.806;2023-02-26T18:37:53;4.70;;;4.30;;
2049;SDS011;8478;49.208;8.806;2023-02-26T18:40:20;4.90;;;4.40;;
2049;SDS011;8478;49.208;8.806;2023-02-26T18:42:48;5.73;;;5.10;;
2049;SDS011;8478;49.208;8.806;2023-02-26T18:45:14;6.47;;;5.87;;
2049;SDS011;8478;49.208;8.806;2023-02-26T18:47:40;5.80;;;5.20;;
2049;SDS011;8478;49.208;8.806;2023-02-26T18:50:06;6.67;;;5.33;;
2049;SDS011;8478;49.208;8.806;2023-02-26T18:52:34;5.93;;;4.80;;